Time;durP1;ratioP1;P1;durP2;ratioP2;P2;SDS_P1;SDS_P2;PMS_P1;PMS_P2;Temp;Humidity;BMP_temperature;BMP_pressure;BME280_temperature;BME280_humidity;BME280_pressure;Samples;Min_cycle;Max_cycle;Signal;HPM_P1;HPM_P2
2021/04/26 00:00:02;;;;;;;2.33;1.48;;;15.30;81.40;;;;;;4980932;28;20101;-76
2021/04/26 00:02:40;;;;;;;3.65;1.48;;;15.20;81.60;;;;;;4982275;28;20050;-75
2021/04/26 00:05:10;;;;;;;2.05;1.48;;;15.20;81.70;;;;;;4982991;28;20066;-76
2021/04/26 00:07:38;;;;;;;2.08;1.33;;;15.20;81.80;;;;;;4972051;28;20451;-76
2021/04/26 00:10:06;;;;;;;3.38;1.23;;;15.20;81.70;;;;;;4963427;28;20408;-76
2021/04/26 00:12:35;;;;;;;1.75;1.27;;;15.20;81.90;;;;;;4968346;28;20058;-76
2021/04/26 00:15:17;;;;;;;1.70;1.40;;;15.20;82.00;;;;;;4968253;28;20500;-75
2021/04/26 00:17:46;;;;;;;4.22;1.70;;;15.00;82.10;;;;;;4984765;28;20125;-75
2021/04/26 00:20:15;;;;;;;3.05;1.40;;;15.00;82.40;;;;;;4964045;28;20065;-75
2021/04/26 00:22:44;;;;;;;2.22;1.40;;;15.10;82.50;;;;;;4984423;28;20050;-76
2021/04/26 00:25:13;;;;;;;2.25;1.50;;;15.10;82.60;;;;;;4966564;28;20381;-76
2021/04/26 00:27:41;;;;;;;2.33;1.67;;;15.00;82.90;;;;;;4984393;28;20451;-76
2021/04/26 00:30:12;;;;;;;3.08;1.50;;;14.90;83.50;;;;;;4965931;28;20464;-75
2021/04/26 00:32:40;;;;;;;2.25;1.48;;;14.80;83.90;;;;;;4986851;28;20050;-76
2021/04/26 00:35:11;;;;;;;3.40;1.60;;;14.60;84.30;;;;;;4981810;28;20053;-76
2021/04/26 00:37:39;;;;;;;3.95;1.50;;;14.60;84.50;;;;;;4982028;28;20081;-76
2021/04/26 00:40:09;;;;;;;2.40;1.55;;;14.60;84.80;;;;;;4965579;28;20092;-75
2021/04/26 00:42:38;;;;;;;3.03;1.65;;;14.60;84.80;;;;;;4949116;28;20249;-75
2021/04/26 00:45:09;;;;;;;2.65;1.30;;;14.60;84.30;;;;;;4981639;28;20042;-75
2021/04/26 00:47:38;;;;;;;1.70;1.40;;;14.50;84.40;;;;;;4965481;28;20050;-75
2021/04/26 00:50:08;;;;;;;1.48;1.27;;;14.50;84.70;;;;;;4962543;28;20054;-77
2021/04/26 00:52:38;;;;;;;2.97;1.40;;;14.50;84.40;;;;;;4962494;28;20046;-76
2021/04/26 00:55:08;;;;;;;2.50;1.40;;;14.60;83.90;;;;;;4979560;28;20069;-76
2021/04/26 00:57:36;;;;;;;2.20;1.15;;;14.60;84.00;;;;;;4965387;28;20526;-75
2021/04/26 01:00:09;;;;;;;2.85;1.42;;;14.60;83.70;;;;;;4964276;28;20658;-75
2021/04/26 01:02:40;;;;;;;2.03;0.90;;;14.60;83.70;;;;;;4966368;28;20558;-75
2021/04/26 01:05:11;;;;;;;3.05;1.85;;;14.60;83.80;;;;;;4967249;28;20065;-75
2021/04/26 01:07:41;;;;;;;1.92;1.40;;;14.60;84.00;;;;;;4982455;28;20504;-76
2021/04/26 01:10:14;;;;;;;3.10;1.50;;;14.60;83.80;;;;;;4981195;28;20039;-76
2021/04/26 01:13:05;;;;;;;2.78;1.55;;;14.50;83.90;;;;;;4981449;28;20060;-76
2021/04/26 01:15:40;;;;;;;2.72;1.50;;;14.40;84.10;;;;;;4973765;28;20057;-76
2021/04/26 01:18:16;;;;;;;2.08;1.30;;;14.40;84.70;;;;;;4980821;28;20033;-75
2021/04/26 01:21:25;;;;;;;2.67;1.42;;;14.40;84.80;;;;;;4980040;28;20252;-76
2021/04/26 01:24:28;;;;;;;2.05;1.23;;;14.30;85.10;;;;;;4962638;28;20579;-76
2021/04/26 01:27:15;;;;;;;2.20;1.42;;;14.30;85.40;;;;;;4980771;28;20047;-76
2021/04/26 01:30:05;;;;;;;1.77;1.33;;;14.40;85.40;;;;;;4951069;28;20050;-76
2021/04/26 01:32:53;;;;;;;2.70;1.58;;;14.30;85.70;;;;;;4978409;28;20046;-76
2021/04/26 01:35:24;;;;;;;;;;;14.30;86.20;;;;;;4978862;28;20046;-77
2021/04/26 01:37:59;;;;;;;1.85;1.23;;;14.20;86.50;;;;;;4964310;28;19929;-75
2021/04/26 01:40:27;;;;;;;2.63;1.65;;;14.20;86.80;;;;;;4980054;28;20042;-76
2021/04/26 01:42:58;;;;;;;3.33;1.83;;;14.10;86.60;;;;;;4965260;28;20053;-76
2021/04/26 01:45:27;;;;;;;5.22;2.10;;;14.10;86.50;;;;;;4980988;28;20132;-76
2021/04/26 01:47:58;;;;;;;2.53;1.50;;;14.10;86.30;;;;;;4966269;28;20513;-76
2021/04/26 01:50:31;;;;;;;2.70;1.70;;;14.00;85.90;;;;;;4948565;28;20073;-75
2021/04/26 01:53:00;;;;;;;5.07;1.40;;;13.90;86.00;;;;;;4979882;28;20081;-75
2021/04/26 01:55:28;;;;;;;2.28;1.40;;;13.90;86.20;;;;;;4980558;28;20109;-75
2021/04/26 01:58:01;;;;;;;3.08;1.48;;;13.90;85.80;;;;;;4948741;28;20050;-76
2021/04/26 02:00:36;;;;;;;2.90;1.92;;;14.00;85.60;;;;;;4959415;28;20058;-76
2021/04/26 02:03:12;;;;;;;2.92;1.50;;;14.00;85.40;;;;;;4980826;28;20482;-76
2021/04/26 02:05:55;;;;;;;4.18;1.48;;;13.90;85.80;;;;;;4965052;28;20061;-76
2021/04/26 02:08:25;;;;;;;2.72;1.20;;;13.80;86.40;;;;;;4965726;28;20054;-77
2021/04/26 02:10:54;;;;;;;2.55;1.60;;;13.90;86.70;;;;;;4963266;28;20053;-76
2021/04/26 02:13:26;;;;;;;2.15;1.75;;;13.90;86.50;;;;;;4966011;28;20128;-76
2021/04/26 02:15:59;;;;;;;2.58;1.40;;;13.90;86.60;;;;;;4946597;28;20134;-76
2021/04/26 02:18:28;;;;;;;2.47;1.38;;;13.90;86.70;;;;;;4949877;28;20069;-76
2021/04/26 02:20:56;;;;;;;2.67;1.27;;;13.90;87.00;;;;;;4979283;28;20046;-76
2021/04/26 02:23:24;;;;;;;1.92;1.20;;;13.80;87.40;;;;;;4963850;28;20081;-76
2021/04/26 02:25:52;;;;;;;2.65;1.55;;;13.90;87.30;;;;;;4980279;28;20042;-76
2021/04/26 02:28:31;;;;;;;1.70;1.50;;;13.80;87.70;;;;;;4963609;28;20038;-76
2021/04/26 02:31:00;;;;;;;3.83;1.50;;;13.70;87.70;;;;;;4976939;28;20046;-76
2021/04/26 02:33:34;;;;;;;4.20;1.70;;;13.70;88.10;;;;;;4964613;28;20061;-76
2021/04/26 02:36:18;;;;;;;2.45;1.58;;;13.60;87.80;;;;;;4964149;28;20039;-77
2021/04/26 02:38:50;;;;;;;2.42;1.65;;;13.80;87.70;;;;;;4963856;28;20068;-76
2021/04/26 02:41:24;;;;;;;2.35;1.48;;;13.80;87.50;;;;;;4961310;28;20046;-76
2021/04/26 02:44:01;;;;;;;3.10;1.77;;;13.80;87.40;;;;;;4960200;28;20053;-76
2021/04/26 02:46:34;;;;;;;2.97;1.70;;;13.80;87.10;;;;;;4981911;28;20396;-76
2021/04/26 02:49:06;;;;;;;2.38;1.83;;;13.60;87.60;;;;;;4962791;28;20121;-77
2021/04/26 02:51:35;;;;;;;1.70;1.48;;;13.50;88.00;;;;;;4964765;28;20583;-77
2021/04/26 02:54:05;;;;;;;1.98;1.52;;;13.40;88.40;;;;;;4978045;28;20035;-76
2021/04/26 02:56:39;;;;;;;3.40;1.30;;;13.30;88.60;;;;;;4963385;28;20058;-76
2021/04/26 02:59:09;;;;;;;3.22;1.90;;;13.40;88.70;;;;;;4944562;28;20050;-76
2021/04/26 03:01:42;;;;;;;2.28;1.90;;;13.40;88.60;;;;;;4963387;28;20038;-77
2021/04/26 03:04:28;;;;;;;3.47;1.50;;;13.40;88.90;;;;;;4954122;28;20154;-76
2021/04/26 03:07:01;;;;;;;1.60;1.45;;;13.30;89.10;;;;;;4955740;28;20059;-77
2021/04/26 03:09:52;;;;;;;3.13;1.67;;;13.20;89.30;;;;;;4959338;28;20412;-77
2021/04/26 03:12:21;;;;;;;4.15;1.75;;;13.20;89.70;;;;;;4960064;28;20145;-77
2021/04/26 03:14:52;;;;;;;3.92;2.55;;;13.10;90.10;;;;;;4961537;28;20054;-76
2021/04/26 03:17:21;;;;;;;1.88;1.50;;;12.90;90.20;;;;;;4949861;28;20500;-76
2021/04/26 03:20:04;;;;;;;3.00;1.88;;;12.90;90.60;;;;;;4980393;28;20361;-77
2021/04/26 03:22:37;;;;;;;4.30;1.63;;;13.00;90.30;;;;;;4960958;28;20089;-76
2021/04/26 03:25:06;;;;;;;3.97;1.65;;;12.90;90.50;;;;;;4978272;28;20054;-76
2021/04/26 03:27:34;;;;;;;3.40;1.88;;;13.00;90.40;;;;;;4967791;28;20137;-76
2021/04/26 03:30:06;;;;;;;3.20;1.42;;;13.20;89.90;;;;;;4965084;28;20039;-77
2021/04/26 03:32:48;;;;;;;3.80;1.80;;;13.10;90.10;;;;;;4961540;28;20058;-77
2021/04/26 03:35:22;;;;;;;2.78;1.70;;;13.10;90.30;;;;;;4965627;28;20058;-76
2021/04/26 03:37:52;;;;;;;2.72;1.60;;;13.10;90.40;;;;;;4963820;28;20080;-76
2021/04/26 03:40:22;;;;;;;2.40;1.80;;;13.20;90.10;;;;;;4965129;28;20062;-76
2021/04/26 03:42:54;;;;;;;2.42;1.80;;;13.10;90.90;;;;;;4963703;28;20043;-77
2021/04/26 03:45:23;;;;;;;4.05;2.05;;;13.10;91.10;;;;;;4962231;28;20043;-76
2021/04/26 03:48:10;;;;;;;3.55;2.20;;;13.00;91.40;;;;;;4963696;28;20101;-76
2021/04/26 03:51:01;;;;;;;3.33;2.40;;;13.10;91.50;;;;;;4955234;28;20049;-76
2021/04/26 03:53:48;;;;;;;2.58;2.00;;;13.00;91.80;;;;;;4965306;28;20061;-76
2021/04/26 03:56:28;;;;;;;3.30;2.08;;;12.90;92.10;;;;;;4961677;28;20034;-76
2021/04/26 03:58:55;;;;;;;3.38;1.70;;;12.80;92.80;;;;;;4964191;28;20058;-76
2021/04/26 04:01:27;;;;;;;2.70;2.00;;;12.70;93.60;;;;;;4962986;28;20470;-76
2021/04/26 04:03:55;;;;;;;4.10;2.50;;;12.70;93.70;;;;;;4980697;28;20140;-76
2021/04/26 04:06:25;;;;;;;4.15;2.28;;;12.70;93.60;;;;;;4945820;28;20603;-77
2021/04/26 04:09:31;;;;;;;5.03;2.30;;;12.80;93.70;;;;;;4923655;29;20048;-76
2021/04/26 04:12:23;;;;;;;5.05;2.03;;;12.70;93.90;;;;;;4901171;29;20058;-76
2021/04/26 04:14:59;;;;;;;4.15;2.88;;;12.70;94.00;;;;;;4943770;28;20137;-76
2021/04/26 04:17:27;;;;;;;4.82;2.42;;;12.80;93.70;;;;;;4963425;28;20066;-76
2021/04/26 04:19:55;;;;;;;2.25;1.83;;;12.90;93.40;;;;;;4946093;28;20101;-76
2021/04/26 04:22:25;;;;;;;7.28;2.00;;;12.90;93.20;;;;;;4964529;28;20064;-76
2021/04/26 04:25:02;;;;;;;3.08;1.92;;;12.90;93.00;;;;;;4962020;28;20035;-76
2021/04/26 04:27:31;;;;;;;4.40;2.13;;;13.00;92.20;;;;;;4963400;28;20046;-76
2021/04/26 04:30:03;;;;;;;4.22;2.20;;;13.00;92.30;;;;;;4946378;28;20070;-76
2021/04/26 04:32:49;;;;;;;3.80;2.08;;;13.00;92.20;;;;;;4963827;28;20097;-76
2021/04/26 04:35:37;;;;;;;3.65;1.92;;;13.00;92.10;;;;;;4929088;28;20063;-78
2021/04/26 04:38:38;;;;;;;2.20;1.67;;;13.10;91.80;;;;;;4912930;28;20073;-77
2021/04/26 04:41:24;;;;;;;;;;;13.00;91.70;;;;;;4960840;28;20619;-76
2021/04/26 04:43:53;;;;;;;3.42;1.80;;;13.00;91.60;;;;;;4960454;28;20507;-77
2021/04/26 04:46:21;;;;;;;4.65;1.90;;;13.20;91.10;;;;;;4949738;28;20034;-77
2021/04/26 04:48:59;;;;;;;4.13;1.70;;;13.30;90.30;;;;;;4961408;28;20043;-78
2021/04/26 04:51:27;;;;;;;2.05;1.55;;;13.30;90.20;;;;;;4962450;28;20055;-77
2021/04/26 04:54:05;;;;;;;4.50;1.90;;;13.20;90.30;;;;;;4961891;28;20039;-77
2021/04/26 04:56:50;;;;;;;2.50;1.90;;;13.20;90.30;;;;;;4960688;28;20047;-77
2021/04/26 04:59:19;;;;;;;4.60;1.70;;;13.20;90.40;;;;;;4962728;28;20407;-77
2021/04/26 05:01:53;;;;;;;2.95;2.10;;;13.20;90.30;;;;;;4963406;28;20084;-77
2021/04/26 05:04:40;;;;;;;3.42;2.10;;;13.20;90.40;;;;;;4963496;28;20054;-77
2021/04/26 05:07:26;;;;;;;5.00;2.00;;;13.00;90.80;;;;;;4955370;28;20089;-77
2021/04/26 05:10:13;;;;;;;5.57;2.30;;;13.10;90.80;;;;;;4963519;28;20628;-77
2021/04/26 05:13:00;;;;;;;4.30;2.08;;;13.30;90.60;;;;;;4962322;28;20428;-77
2021/04/26 05:15:51;;;;;;;2.55;1.80;;;13.40;90.00;;;;;;4950199;28;20046;-77
2021/04/26 05:18:19;;;;;;;4.20;1.98;;;13.50;90.20;;;;;;4959254;28;20069;-77
2021/04/26 05:20:47;;;;;;;5.95;2.42;;;13.30;90.30;;;;;;4961782;28;20047;-77
2021/04/26 05:23:15;;;;;;;3.72;2.22;;;13.30;90.70;;;;;;4963013;28;20049;-77
2021/04/26 05:25:44;;;;;;;3.03;1.88;;;13.30;90.60;;;;;;4972655;28;20043;-77
2021/04/26 05:28:12;;;;;;;3.30;2.33;;;13.30;90.70;;;;;;4962686;28;20121;-77
2021/04/26 05:30:44;;;;;;;3.17;2.20;;;13.40;90.60;;;;;;4962753;28;20046;-77
2021/04/26 05:33:15;;;;;;;4.13;2.10;;;13.30;90.90;;;;;;4960319;28;20050;-77
2021/04/26 05:36:14;;;;;;;5.47;2.08;;;13.40;90.70;;;;;;4961698;28;20168;-77
2021/04/26 05:39:00;;;;;;;3.67;2.00;;;13.40;91.00;;;;;;4944652;28;20043;-77
2021/04/26 05:41:29;;;;;;;4.00;2.85;;;13.50;90.80;;;;;;4962341;28;20062;-77
2021/04/26 05:43:58;;;;;;;3.90;3.15;;;13.50;90.50;;;;;;4977173;28;20053;-77
2021/04/26 05:46:33;;;;;;;4.00;3.20;;;13.50;90.40;;;;;;4960406;28;20481;-77
2021/04/26 05:49:01;;;;;;;7.20;3.10;;;13.60;90.50;;;;;;4952961;28;20050;-77
2021/04/26 05:51:30;;;;;;;6.88;3.00;;;13.50;90.30;;;;;;4960019;28;20055;-77
2021/04/26 05:53:59;;;;;;;4.53;2.58;;;13.60;90.40;;;;;;4963169;28;20092;-77
2021/04/26 05:56:28;;;;;;;4.00;2.60;;;13.50;90.90;;;;;;4978349;28;20208;-78
2021/04/26 05:58:56;;;;;;;7.80;2.70;;;13.50;90.70;;;;;;4959904;28;20047;-77
2021/04/26 06:01:25;;;;;;;4.90;2.22;;;13.60;91.00;;;;;;4960184;28;20054;-77
2021/04/26 06:03:53;;;;;;;6.60;2.95;;;13.50;91.30;;;;;;4960651;28;20048;-77
2021/04/26 06:06:22;;;;;;;8.40;2.60;;;13.50;91.60;;;;;;4967562;28;20038;-77
2021/04/26 06:08:51;;;;;;;5.55;2.17;;;13.40;91.70;;;;;;4944232;28;20066;-77
2021/04/26 06:11:19;;;;;;;5.88;2.50;;;13.50;91.70;;;;;;4961570;28;20046;-77
2021/04/26 06:13:48;;;;;;;6.63;2.28;;;13.50;91.80;;;;;;4974399;28;20042;-77
2021/04/26 06:16:17;;;;;;;5.53;2.05;;;13.40;92.30;;;;;;4959386;28;20042;-77
2021/04/26 06:18:46;;;;;;;5.28;1.88;;;13.30;92.80;;;;;;4964633;28;20046;-78
2021/04/26 06:21:14;;;;;;;2.75;2.13;;;13.10;93.70;;;;;;4944155;28;20425;-77
2021/04/26 06:23:42;;;;;;;5.95;2.63;;;13.10;94.10;;;;;;4960132;28;20043;-77
2021/04/26 06:26:10;;;;;;;6.30;2.28;;;13.20;94.30;;;;;;4960139;28;20460;-77
2021/04/26 06:28:38;;;;;;;3.33;2.28;;;13.20;95.00;;;;;;4959775;28;20501;-77
2021/04/26 06:31:07;;;;;;;6.20;2.38;;;13.20;95.20;;;;;;4961205;28;20417;-77
2021/04/26 06:33:35;;;;;;;5.15;2.90;;;13.20;95.60;;;;;;4957771;28;20141;-78
2021/04/26 06:36:04;;;;;;;5.45;2.83;;;13.20;95.80;;;;;;4960958;28;20085;-77
2021/04/26 06:38:32;;;;;;;9.00;3.22;;;13.30;96.10;;;;;;4963716;28;20130;-78
2021/04/26 06:41:01;;;;;;;4.25;3.10;;;13.20;96.70;;;;;;4973884;28;20548;-77
2021/04/26 06:43:29;;;;;;;5.03;3.20;;;13.10;96.70;;;;;;4961086;28;20062;-78
2021/04/26 06:45:57;;;;;;;7.13;3.63;;;13.10;96.70;;;;;;4955958;28;20417;-78
2021/04/26 06:48:26;;;;;;;7.60;4.38;;;13.20;96.70;;;;;;4961077;28;20042;-77
2021/04/26 06:50:57;;;;;;;6.28;3.97;;;13.30;96.70;;;;;;4965760;28;20049;-77
2021/04/26 06:53:25;;;;;;;5.85;4.20;;;13.30;96.70;;;;;;4963917;28;20055;-77
2021/04/26 06:55:53;;;;;;;8.23;4.82;;;13.30;96.70;;;;;;4950934;28;20105;-77
2021/04/26 06:58:22;;;;;;;8.32;3.60;;;13.40;96.70;;;;;;4963679;28;20670;-77
2021/04/26 07:00:50;;;;;;;6.30;3.97;;;13.20;96.70;;;;;;4965745;28;20031;-77
2021/04/26 07:03:18;;;;;;;6.40;3.67;;;13.20;96.70;;;;;;4966102;28;20038;-77
2021/04/26 07:05:47;;;;;;;7.35;4.30;;;13.30;96.70;;;;;;4962944;28;20154;-77
2021/04/26 07:08:15;;;;;;;6.95;3.97;;;13.30;96.70;;;;;;4964368;28;20046;-77
2021/04/26 07:10:44;;;;;;;5.20;3.83;;;13.30;96.70;;;;;;4979096;28;20616;-77
2021/04/26 07:13:12;;;;;;;8.63;3.60;;;13.40;96.70;;;;;;4964224;28;20590;-77
2021/04/26 07:15:40;;;;;;;8.27;3.53;;;13.50;96.70;;;;;;4967544;28;20054;-77
2021/04/26 07:18:10;;;;;;;5.22;3.72;;;13.50;96.70;;;;;;4964585;28;20047;-77
2021/04/26 07:20:38;;;;;;;5.85;3.85;;;13.60;96.70;;;;;;4964188;28;20034;-77
2021/04/26 07:23:08;;;;;;;7.28;4.07;;;13.80;96.70;;;;;;4964293;28;20740;-77
2021/04/26 07:25:36;;;;;;;5.55;4.53;;;13.80;96.70;;;;;;4964440;28;20620;-77
2021/04/26 07:28:05;;;;;;;8.95;3.90;;;13.90;96.70;;;;;;4963686;28;20062;-77
2021/04/26 07:30:33;;;;;;;6.25;3.70;;;14.10;96.70;;;;;;4964319;28;20054;-77
2021/04/26 07:33:01;;;;;;;5.10;3.75;;;14.20;96.70;;;;;;4961957;28;20351;-77
2021/04/26 07:35:29;;;;;;;8.25;4.22;;;14.20;96.70;;;;;;4966168;28;20035;-77
2021/04/26 07:37:58;;;;;;;8.65;4.15;;;14.20;96.70;;;;;;4963321;28;20039;-77
2021/04/26 07:40:27;;;;;;;8.30;4.10;;;14.30;96.70;;;;;;4948150;28;20125;-76
2021/04/26 07:42:55;;;;;;;7.15;3.63;;;14.40;96.70;;;;;;4963939;28;20043;-75
2021/04/26 07:45:26;;;;;;;5.35;3.70;;;14.50;96.70;;;;;;4965625;28;20122;-76
2021/04/26 07:47:55;;;;;;;7.50;3.88;;;14.50;96.70;;;;;;4965632;28;20505;-76
2021/04/26 07:50:24;;;;;;;6.78;3.65;;;14.50;96.70;;;;;;4962727;28;20053;-77
2021/04/26 07:52:52;;;;;;;7.80;3.97;;;14.70;96.70;;;;;;4964228;28;20130;-81
2021/04/26 07:55:20;;;;;;;6.35;3.92;;;14.80;96.70;;;;;;4963258;28;20093;-77
2021/04/26 07:57:49;;;;;;;6.95;3.53;;;15.00;96.70;;;;;;4930123;28;20054;-77
2021/04/26 08:00:19;;;;;;;6.07;3.70;;;15.10;96.70;;;;;;4960508;28;20796;-76
2021/04/26 08:02:47;;;;;;;5.22;3.83;;;15.20;96.70;;;;;;4962043;28;20504;-76
2021/04/26 08:05:15;;;;;;;6.72;3.78;;;15.30;96.70;;;;;;4962381;28;20042;-77
2021/04/26 08:07:43;;;;;;;4.57;3.65;;;15.40;96.70;;;;;;4963724;28;20038;-77
2021/04/26 08:10:12;;;;;;;4.93;3.63;;;15.50;96.70;;;;;;4964400;28;20090;-77
2021/04/26 08:12:41;;;;;;;7.70;4.10;;;15.50;96.70;;;;;;4964958;28;20047;-77
2021/04/26 08:15:11;;;;;;;6.32;4.07;;;15.60;96.70;;;;;;4967209;28;20054;-78
2021/04/26 08:17:40;;;;;;;5.93;3.90;;;15.70;96.70;;;;;;4964073;28;20059;-77
2021/04/26 08:20:10;;;;;;;6.32;4.00;;;15.80;96.40;;;;;;4961495;28;20054;-78
2021/04/26 08:22:38;;;;;;;5.45;4.00;;;15.80;96.50;;;;;;4963907;28;20053;-78
2021/04/26 08:25:08;;;;;;;5.28;3.92;;;15.80;96.70;;;;;;4962945;28;20101;-78
2021/04/26 08:27:36;;;;;;;5.45;3.92;;;15.80;96.70;;;;;;4958379;28;20381;-78
2021/04/26 08:30:07;;;;;;;5.70;3.55;;;15.70;96.70;;;;;;4963438;28;21859;-77
2021/04/26 08:32:36;;;;;;;5.85;4.13;;;15.80;96.70;;;;;;4946858;28;20571;-77
2021/04/26 08:35:07;;;;;;;5.85;4.30;;;15.90;96.70;;;;;;4963228;28;20046;-78
2021/04/26 08:37:36;;;;;;;4.57;3.60;;;15.90;96.60;;;;;;4962973;28;20055;-78
2021/04/26 08:40:05;;;;;;;6.10;4.00;;;16.00;96.60;;;;;;4944147;28;20062;-77
2021/04/26 08:42:33;;;;;;;4.82;4.25;;;16.10;96.50;;;;;;4961420;28;20035;-77
2021/04/26 08:45:02;;;;;;;6.32;4.25;;;16.20;95.60;;;;;;4967207;28;20066;-78
2021/04/26 08:47:31;;;;;;;6.38;4.68;;;16.20;95.40;;;;;;4956323;28;20036;-76
2021/04/26 08:50:02;;;;;;;7.43;4.97;;;16.40;96.00;;;;;;4959107;28;20035;-76
2021/04/26 08:52:30;;;;;;;6.28;5.60;;;16.60;94.50;;;;;;4962264;28;20502;-76
2021/04/26 08:54:59;;;;;;;7.18;5.20;;;16.70;93.90;;;;;;4947244;28;20598;-76
2021/04/26 08:57:27;;;;;;;8.13;5.80;;;16.70;92.00;;;;;;4959619;28;20497;-76
2021/04/26 08:59:55;;;;;;;7.38;5.38;;;16.80;91.40;;;;;;4958772;28;20475;-77
2021/04/26 09:02:23;;;;;;;7.13;4.35;;;16.90;91.10;;;;;;4962905;28;20046;-77
2021/04/26 09:04:55;;;;;;;5.53;4.20;;;17.10;90.10;;;;;;4961509;28;20137;-77
2021/04/26 09:07:24;;;;;;;5.45;3.50;;;17.20;89.60;;;;;;4965516;28;20511;-77
2021/04/26 09:09:53;;;;;;;4.95;3.92;;;17.20;89.50;;;;;;4961974;28;20050;-79
2021/04/26 09:12:27;;;;;;;6.38;3.75;;;17.20;88.00;;;;;;4955969;28;20432;-77
2021/04/26 09:14:55;;;;;;;5.28;3.47;;;17.20;87.80;;;;;;4961270;28;20043;-77
2021/04/26 09:17:35;;;;;;;8.23;3.60;;;17.30;87.50;;;;;;4961611;28;20045;-77
2021/04/26 09:20:24;;;;;;;5.45;3.60;;;17.40;86.90;;;;;;4973164;28;20058;-77
2021/04/26 09:22:56;;;;;;;4.88;3.22;;;17.40;87.20;;;;;;4974681;28;20106;-77
2021/04/26 09:25:27;;;;;;;5.45;3.38;;;17.60;86.60;;;;;;4962190;28;20090;-76
2021/04/26 09:28:04;;;;;;;5.15;3.60;;;17.70;87.20;;;;;;4968878;28;20078;-77
2021/04/26 09:30:45;;;;;;;5.32;3.45;;;17.80;86.30;;;;;;4958616;28;20054;-77
2021/04/26 09:33:36;;;;;;;5.82;4.20;;;17.90;86.10;;;;;;4944975;28;20421;-76
2021/04/26 09:36:19;;;;;;;5.97;3.88;;;17.90;86.80;;;;;;4974533;28;20521;-76
2021/04/26 09:38:50;;;;;;;4.88;3.22;;;18.00;85.30;;;;;;4960141;28;20050;-76
2021/04/26 09:41:22;;;;;;;5.22;3.22;;;18.10;84.30;;;;;;4945872;28;20464;-77
2021/04/26 09:43:52;;;;;;;7.53;3.72;;;18.20;84.60;;;;;;4940787;28;20141;-77
2021/04/26 09:46:22;;;;;;;4.35;3.40;;;18.20;83.60;;;;;;4943496;28;20066;-77
2021/04/26 09:48:50;;;;;;;5.15;3.20;;;18.30;83.30;;;;;;4961955;28;20460;-76
2021/04/26 09:51:21;;;;;;;5.00;3.40;;;18.40;84.10;;;;;;4959930;28;20034;-76
2021/04/26 09:53:53;;;;;;;6.68;3.92;;;18.50;84.40;;;;;;4962951;28;20053;-77
2021/04/26 09:56:23;;;;;;;7.03;3.95;;;18.60;85.10;;;;;;4957398;28;20062;-77
2021/04/26 09:58:53;;;;;;;5.72;4.13;;;18.70;84.80;;;;;;4961049;28;20082;-77
2021/04/26 10:01:24;;;;;;;4.78;3.35;;;18.70;83.90;;;;;;4957877;28;20051;-77
2021/04/26 10:03:53;;;;;;;5.25;3.15;;;18.70;84.20;;;;;;4961749;28;20039;-77
2021/04/26 10:06:24;;;;;;;6.65;3.65;;;18.80;83.90;;;;;;4961731;28;20093;-77
2021/04/26 10:08:56;;;;;;;6.30;3.72;;;18.90;83.50;;;;;;4960905;28;20050;-77
2021/04/26 10:11:26;;;;;;;6.47;3.78;;;18.90;83.20;;;;;;4962594;28;20746;-77
2021/04/26 10:14:01;;;;;;;6.25;3.97;;;19.00;83.00;;;;;;4961496;28;20158;-77
2021/04/26 10:16:39;;;;;;;5.00;3.00;;;19.10;83.40;;;;;;4960102;28;20070;-77
2021/04/26 10:19:08;;;;;;;4.95;3.30;;;19.20;82.70;;;;;;4960825;28;20342;-77
2021/04/26 10:21:37;;;;;;;4.65;2.97;;;19.50;82.20;;;;;;4963678;28;20128;-78
2021/04/26 10:24:18;;;;;;;5.32;3.38;;;19.60;81.30;;;;;;4961184;28;20043;-77
2021/04/26 10:26:49;;;;;;;3.47;2.88;;;19.60;81.00;;;;;;4957945;28;20474;-77
2021/04/26 10:29:25;;;;;;;5.57;2.78;;;19.80;81.50;;;;;;4961325;28;20050;-78
2021/04/26 10:32:24;;;;;;;3.25;2.70;;;20.10;79.90;;;;;;4960634;28;20050;-79
2021/04/26 10:35:10;;;;;;;5.72;3.15;;;20.30;79.20;;;;;;4938912;28;20588;-79
2021/04/26 10:37:39;;;;;;;6.30;3.80;;;20.50;78.50;;;;;;4960869;28;20077;-77
2021/04/26 10:40:12;;;;;;;5.47;3.58;;;20.50;77.50;;;;;;4958030;28;20539;-77
2021/04/26 10:42:43;;;;;;;3.55;2.85;;;20.70;79.00;;;;;;4961916;28;20058;-78
2021/04/26 10:45:27;;;;;;;4.15;2.80;;;20.90;77.50;;;;;;4951917;28;20597;-78
2021/04/26 10:48:12;;;;;;;3.53;3.00;;;20.90;77.60;;;;;;4960684;28;20117;-77
2021/04/26 10:50:50;;;;;;;5.25;3.03;;;21.00;76.30;;;;;;4969334;28;20436;-77
2021/04/26 10:53:19;;;;;;;4.00;2.58;;;20.90;76.00;;;;;;4960580;28;20082;-78
2021/04/26 10:56:23;;;;;;;4.72;3.00;;;20.90;75.90;;;;;;4959863;28;20066;-77
2021/04/26 10:59:11;;;;;;;5.70;2.60;;;20.80;75.50;;;;;;4965745;28;20065;-77
2021/04/26 11:01:47;;;;;;;3.50;2.22;;;20.90;74.70;;;;;;4964577;28;20062;-76
2021/04/26 11:04:15;;;;;;;4.35;2.55;;;21.10;73.00;;;;;;4979344;28;20046;-77
2021/04/26 11:07:00;;;;;;;4.55;2.38;;;21.20;74.40;;;;;;4961646;28;20738;-76
2021/04/26 11:09:38;;;;;;;3.88;2.53;;;21.50;72.30;;;;;;4963169;28;20054;-77
2021/04/26 11:12:30;;;;;;;4.22;2.72;;;21.50;72.10;;;;;;4977460;28;20050;-77
2021/04/26 11:15:12;;;;;;;5.47;2.78;;;21.60;73.60;;;;;;4960938;28;20958;-77
2021/04/26 11:17:40;;;;;;;3.60;2.25;;;21.50;72.90;;;;;;4965338;28;20057;-77
2021/04/26 11:20:13;;;;;;;5.13;2.50;;;21.40;73.60;;;;;;4980673;28;20070;-78
2021/04/26 11:22:42;;;;;;;3.15;1.98;;;21.40;72.50;;;;;;4974650;28;20065;-77
2021/04/26 11:25:30;;;;;;;4.53;2.17;;;21.30;70.70;;;;;;4976601;28;20385;-78
2021/04/26 11:28:00;;;;;;;2.63;1.77;;;21.30;69.60;;;;;;4962804;28;20053;-77
2021/04/26 11:30:30;;;;;;;3.80;2.25;;;21.30;70.10;;;;;;4977004;28;20046;-77
2021/04/26 11:33:15;;;;;;;3.95;1.77;;;21.30;70.10;;;;;;4962141;28;20042;-76
2021/04/26 11:36:20;;;;;;;2.92;1.80;;;21.20;69.70;;;;;;4965453;28;20276;-77
2021/04/26 11:38:49;;;;;;;3.65;1.80;;;21.40;68.20;;;;;;4966821;28;20046;-78
2021/04/26 11:41:17;;;;;;;3.80;2.00;;;21.50;68.00;;;;;;4969226;28;20417;-78
2021/04/26 11:43:49;;;;;;;3.60;2.10;;;21.60;68.50;;;;;;4982542;28;20160;-78
2021/04/26 11:46:29;;;;;;;4.07;1.85;;;21.50;68.80;;;;;;4966185;28;20052;-76
2021/04/26 11:49:18;;;;;;;3.40;1.67;;;21.60;69.90;;;;;;4965173;28;20050;-77
2021/04/26 11:51:47;;;;;;;3.55;1.92;;;22.00;68.10;;;;;;4981991;28;20049;-77
2021/04/26 11:54:18;;;;;;;1.88;1.52;;;22.00;68.20;;;;;;4984807;28;20039;-76
2021/04/26 11:57:04;;;;;;;3.88;2.03;;;22.30;67.50;;;;;;4967778;28;20050;-76
2021/04/26 11:59:34;;;;;;;3.30;1.60;;;22.30;68.00;;;;;;4982443;28;20051;-77
2021/04/26 12:02:02;;;;;;;3.08;1.80;;;22.30;67.70;;;;;;4966099;28;20039;-77
2021/04/26 12:04:39;;;;;;;4.03;1.95;;;22.30;66.50;;;;;;4982047;28;20096;-77
2021/04/26 12:07:09;;;;;;;2.60;1.90;;;22.30;67.10;;;;;;4981895;28;20067;-77
2021/04/26 12:09:37;;;;;;;5.18;1.77;;;22.30;65.80;;;;;;4967437;28;20142;-77
2021/04/26 12:12:10;;;;;;;2.85;1.67;;;22.40;67.40;;;;;;4967790;28;20057;-77
2021/04/26 12:14:44;;;;;;;3.60;1.67;;;22.60;67.50;;;;;;4950792;28;20058;-77
2021/04/26 12:17:20;;;;;;;3.25;1.85;;;22.40;66.50;;;;;;4964130;28;20042;-77
2021/04/26 12:19:49;;;;;;;3.25;1.88;;;22.50;67.30;;;;;;4980012;28;20125;-77
2021/04/26 12:22:19;;;;;;;3.08;1.75;;;22.70;68.20;;;;;;4983468;28;20034;-78
2021/04/26 12:24:49;;;;;;;3.42;2.30;;;22.80;67.20;;;;;;4982946;28;20038;-77
2021/04/26 12:27:19;;;;;;;3.50;2.10;;;22.90;67.60;;;;;;4982628;28;20100;-77
2021/04/26 12:29:48;;;;;;;2.85;1.80;;;22.70;68.60;;;;;;4980992;28;20361;-77
2021/04/26 12:32:18;;;;;;;3.60;1.90;;;23.00;68.20;;;;;;4982049;28;20105;-77
2021/04/26 12:34:53;;;;;;;2.47;2.05;;;23.00;67.80;;;;;;4963080;28;20056;-76
2021/04/26 12:37:23;;;;;;;3.97;1.85;;;22.90;67.60;;;;;;4977167;28;20097;-77
2021/04/26 12:39:51;;;;;;;3.50;2.10;;;22.90;67.90;;;;;;4968264;28;20458;-77
2021/04/26 12:42:21;;;;;;;3.15;1.85;;;22.90;67.90;;;;;;4950162;28;20049;-77
2021/04/26 12:44:50;;;;;;;3.67;1.73;;;22.90;68.80;;;;;;4962424;28;20217;-77
2021/04/26 12:47:20;;;;;;;4.57;2.30;;;23.10;68.30;;;;;;4984380;28;20044;-77
2021/04/26 12:49:49;;;;;;;3.90;2.03;;;22.90;68.40;;;;;;4981772;28;20121;-77
2021/04/26 12:52:18;;;;;;;4.13;1.90;;;22.90;68.70;;;;;;4968392;28;20046;-77
2021/04/26 12:55:02;;;;;;;5.32;1.98;;;23.00;68.40;;;;;;4982043;28;20852;-77
2021/04/26 12:57:30;;;;;;;3.13;2.20;;;23.10;68.70;;;;;;4964884;28;20058;-76
2021/04/26 12:59:59;;;;;;;2.50;2.00;;;23.20;68.90;;;;;;4964269;28;20049;-77
2021/04/26 13:02:29;;;;;;;3.40;2.15;;;23.50;68.10;;;;;;4967545;28;20045;-77
2021/04/26 13:04:58;;;;;;;2.80;1.98;;;23.60;67.50;;;;;;4966801;28;20050;-77
2021/04/26 13:07:27;;;;;;;3.90;2.30;;;23.50;67.50;;;;;;4982454;28;20042;-77
2021/04/26 13:10:03;;;;;;;2.80;2.08;;;23.30;67.70;;;;;;4981332;28;20118;-77
2021/04/26 13:12:31;;;;;;;2.72;2.35;;;23.50;68.40;;;;;;4982735;28;20046;-76
2021/04/26 13:15:00;;;;;;;2.70;1.85;;;23.80;69.10;;;;;;4964363;28;20046;-76
2021/04/26 13:17:37;;;;;;;3.17;1.98;;;24.00;68.90;;;;;;4982207;28;20034;-77